Terminal Aerodrome Forecast
Issued by NWS El Paso, TX

Home | Current Version | Previous Version | Text Only | Print | Product List | Glossary On
Versions: 1 2 3 4 5 6 7 8 9 10 11 12 13 14
109
FTUS44 KEPZ 281121
TAFELP
TAF
KELP 281121Z 2812/0112 15006KT P6SM SCT160 BKN210
     FM281700 24029G37KT P6SM FEW120 SCT150 BKN250
     FM282100 25035G45KT 4SM BLDU SCT100
     FM010200 28022G30KT P6SM FEW100
     FM010600 30012KT P6SM SKC=

USA.gov is the U.S. government's official web portal to all federal, state and local government web resources and services.